createdAt,value
2022-10-19T00:01:08.937Z,12.50
2022-10-19T00:03:37.721Z,12.50
2022-10-19T00:06:12.970Z,12.60
2022-10-19T00:08:40.782Z,12.60
2022-10-19T00:11:08.562Z,12.60
2022-10-19T00:13:36.720Z,12.70
2022-10-19T00:16:11.601Z,12.70
2022-10-19T00:18:39.657Z,12.70
2022-10-19T00:21:09.454Z,12.80
2022-10-19T00:23:37.908Z,12.80
2022-10-19T00:26:05.699Z,12.80
2022-10-19T00:28:36.330Z,12.80
2022-10-19T00:31:05.818Z,12.80
2022-10-19T00:33:35.555Z,12.80
2022-10-19T00:36:04.599Z,12.80
2022-10-19T00:38:32.340Z,12.80
2022-10-19T00:40:59.985Z,12.80
2022-10-19T00:43:31.146Z,12.80
2022-10-19T00:45:59.089Z,12.80
2022-10-19T00:48:30.823Z,12.80
2022-10-19T00:51:01.033Z,12.80
2022-10-19T00:53:31.746Z,12.80
2022-10-19T00:56:01.212Z,12.80
2022-10-19T00:58:29.037Z,12.90
2022-10-19T01:00:56.872Z,12.90
2022-10-19T01:03:24.849Z,12.90
2022-10-19T01:05:53.465Z,13.00
2022-10-19T01:08:25.323Z,13.00
2022-10-19T01:10:58.248Z,13.00
2022-10-19T01:13:34.238Z,12.90
2022-10-19T01:16:07.389Z,13.00
2022-10-19T01:18:45.853Z,13.00
2022-10-19T01:21:26.101Z,13.00
2022-10-19T01:24:39.890Z,13.00
2022-10-19T01:27:38.616Z,13.00
2022-10-19T01:30:13.328Z,13.00
2022-10-19T01:33:03.485Z,13.00
2022-10-19T01:35:39.002Z,13.00
2022-10-19T01:38:16.375Z,13.00
2022-10-19T01:40:50.581Z,13.00
2022-10-19T01:43:34.707Z,13.00
2022-10-19T01:46:10.160Z,13.00
2022-10-19T01:48:41.954Z,13.00
2022-10-19T01:51:14.065Z,13.00
2022-10-19T01:53:45.418Z,13.00
2022-10-19T01:56:15.254Z,13.00
2022-10-19T01:58:45.294Z,13.00
2022-10-19T02:01:18.666Z,13.00
2022-10-19T02:03:47.836Z,12.90
2022-10-19T02:06:16.220Z,12.90
2022-10-19T02:08:46.909Z,12.90
2022-10-19T02:11:15.021Z,12.80
2022-10-19T02:13:45.581Z,12.70
2022-10-19T02:18:53.045Z,12.70
2022-10-19T02:21:21.093Z,12.70
2022-10-19T02:23:50.568Z,12.60
2022-10-19T02:26:22.016Z,12.60
2022-10-19T02:28:50.799Z,12.50
2022-10-19T02:31:18.573Z,12.50
2022-10-19T02:33:46.336Z,12.50
2022-10-19T02:36:15.524Z,12.60
2022-10-19T02:38:43.411Z,12.60
2022-10-19T02:41:17.124Z,12.60
2022-10-19T02:43:49.709Z,12.60
2022-10-19T02:46:22.418Z,12.70
2022-10-19T02:48:52.085Z,12.70
2022-10-19T02:51:33.082Z,12.80
2022-10-19T02:54:04.140Z,12.80
2022-10-19T02:56:33.614Z,12.80
2022-10-19T02:59:01.442Z,12.80
2022-10-19T03:01:29.230Z,12.90
2022-10-19T03:03:57.003Z,12.80
2022-10-19T03:06:24.755Z,12.80
2022-10-19T03:08:53.860Z,12.80
2022-10-19T03:11:21.580Z,12.90
2022-10-19T03:13:49.352Z,12.90
2022-10-19T03:16:17.136Z,12.90
2022-10-19T03:18:44.893Z,12.90
2022-10-19T03:21:14.169Z,12.90
2022-10-19T03:23:42.482Z,12.80
2022-10-19T03:26:14.847Z,12.70
2022-10-19T03:28:42.681Z,12.70
2022-10-19T03:31:10.512Z,12.70
2022-10-19T03:33:38.232Z,12.70
2022-10-19T03:36:17.482Z,12.60
2022-10-19T03:38:45.220Z,12.60
2022-10-19T03:41:14.441Z,12.50
2022-10-19T03:43:42.237Z,12.50
2022-10-19T03:46:10.388Z,12.60
2022-10-19T03:48:38.154Z,12.60
2022-10-19T03:51:08.000Z,12.60
2022-10-19T03:53:36.259Z,12.70
2022-10-19T03:56:05.706Z,12.70
2022-10-19T03:58:36.606Z,12.70
2022-10-19T04:01:09.119Z,12.80
2022-10-19T04:03:37.189Z,12.80
2022-10-19T04:06:06.686Z,12.80
2022-10-19T04:08:35.226Z,12.80
2022-10-19T04:11:03.623Z,12.80
2022-10-19T04:13:31.864Z,12.80
2022-10-19T04:16:01.443Z,12.80
2022-10-19T04:18:29.242Z,12.90
2022-10-19T04:20:57.816Z,12.80
2022-10-19T04:23:27.520Z,12.90
2022-10-19T04:26:01.083Z,12.90
2022-10-19T04:28:29.286Z,12.90
2022-10-19T04:30:57.269Z,13.00
2022-10-19T04:33:26.332Z,12.90
2022-10-19T04:35:59.309Z,12.90
2022-10-19T04:38:27.327Z,12.90
2022-10-19T04:40:55.958Z,12.90
2022-10-19T04:43:24.288Z,13.00
2022-10-19T04:46:03.617Z,13.00
2022-10-19T04:48:38.581Z,13.00
2022-10-19T04:51:10.499Z,12.90
2022-10-19T04:53:59.497Z,12.90
2022-10-19T04:56:35.236Z,12.90
2022-10-19T04:59:03.487Z,12.90
2022-10-19T05:01:36.775Z,12.90
2022-10-19T05:04:05.869Z,13.00
2022-10-19T05:06:34.025Z,12.90
2022-10-19T05:09:01.916Z,13.00
2022-10-19T05:11:30.016Z,13.00
2022-10-19T05:13:58.389Z,13.00
2022-10-19T05:16:29.617Z,13.00
2022-10-19T05:19:06.626Z,13.00
2022-10-19T05:21:35.796Z,13.00
2022-10-19T05:24:05.782Z,13.10
2022-10-19T05:26:43.134Z,13.10
2022-10-19T05:29:31.158Z,13.10
2022-10-19T05:31:59.028Z,13.10
2022-10-19T05:34:27.067Z,13.00
2022-10-19T05:37:09.481Z,13.00
2022-10-19T05:40:09.454Z,12.90
2022-10-19T05:43:09.945Z,12.90
2022-10-19T05:46:13.851Z,12.90
2022-10-19T05:49:15.071Z,12.90
2022-10-19T05:51:43.991Z,12.90
2022-10-19T05:54:16.122Z,12.80
2022-10-19T05:56:46.722Z,12.80
2022-10-19T05:59:16.492Z,12.80
2022-10-19T06:01:44.542Z,12.80
2022-10-19T06:04:15.205Z,12.90
2022-10-19T06:06:51.014Z,12.90
2022-10-19T06:09:20.371Z,12.90
2022-10-19T06:11:49.451Z,12.90
2022-10-19T06:14:25.296Z,12.90
2022-10-19T06:16:53.144Z,12.90
2022-10-19T06:19:38.640Z,12.90
2022-10-19T06:22:06.407Z,12.90
2022-10-19T06:24:35.713Z,12.90
2022-10-19T06:27:03.445Z,13.00
2022-10-19T06:29:31.249Z,13.00
2022-10-19T06:32:00.227Z,13.00
2022-10-19T06:34:28.230Z,13.00
2022-10-19T06:36:56.145Z,13.00
2022-10-19T06:39:23.929Z,13.00
2022-10-19T06:41:53.021Z,13.00
2022-10-19T06:44:20.935Z,13.10
2022-10-19T06:46:48.688Z,13.20
2022-10-19T06:49:16.811Z,13.10
2022-10-19T06:51:44.666Z,13.10
2022-10-19T06:54:12.411Z,13.10
2022-10-19T06:56:40.158Z,13.00
2022-10-19T06:59:09.341Z,12.90
2022-10-19T07:01:37.148Z,12.70
2022-10-19T07:04:05.254Z,12.60
2022-10-19T07:06:33.330Z,12.50
2022-10-19T07:09:02.583Z,12.40
2022-10-19T07:11:30.613Z,12.30
2022-10-19T07:13:58.603Z,12.30
2022-10-19T07:16:27.884Z,12.30
2022-10-19T07:18:55.682Z,12.20
2022-10-19T07:21:24.694Z,12.20
2022-10-19T07:23:54.164Z,12.30
2022-10-19T07:26:26.446Z,12.30
2022-10-19T07:28:56.358Z,12.40
2022-10-19T07:31:25.577Z,12.40
2022-10-19T07:33:57.542Z,12.40
2022-10-19T07:36:26.309Z,12.40
2022-10-19T07:39:16.569Z,12.40
2022-10-19T07:41:44.855Z,12.40
2022-10-19T07:44:15.603Z,12.40
2022-10-19T07:46:44.018Z,12.40
2022-10-19T07:49:18.813Z,12.40
2022-10-19T07:51:47.321Z,12.30
2022-10-19T07:54:15.253Z,12.40
2022-10-19T07:56:42.988Z,12.40
2022-10-19T07:59:11.336Z,12.50
2022-10-19T08:01:47.352Z,12.50
2022-10-19T08:07:05.382Z,12.60
2022-10-19T08:09:51.948Z,12.60
2022-10-19T08:12:20.858Z,12.60
2022-10-19T08:14:48.609Z,12.60
2022-10-19T08:17:17.548Z,12.60
2022-10-19T08:19:47.286Z,12.60
2022-10-19T08:22:15.167Z,12.70
2022-10-19T08:24:43.022Z,12.70
2022-10-19T08:27:10.766Z,12.80
2022-10-19T08:29:38.525Z,12.80
2022-10-19T08:32:06.582Z,12.80
2022-10-19T08:34:34.483Z,12.90
2022-10-19T08:37:10.487Z,12.90
2022-10-19T08:39:47.977Z,13.00
2022-10-19T08:42:18.637Z,13.10
2022-10-19T08:45:03.521Z,13.20
2022-10-19T08:47:55.503Z,13.40
2022-10-19T08:50:26.346Z,13.50
2022-10-19T08:53:01.594Z,13.60
2022-10-19T08:55:45.528Z,13.80
2022-10-19T08:58:31.876Z,13.90
2022-10-19T09:01:50.554Z,14.00
2022-10-19T09:04:31.827Z,14.10
2022-10-19T09:07:29.431Z,14.20
2022-10-19T09:10:27.078Z,14.40
2022-10-19T09:13:17.275Z,14.60
2022-10-19T09:24:00.049Z,15.20
2022-10-19T09:26:32.984Z,15.10
2022-10-19T09:29:05.920Z,15.00
2022-10-19T09:31:40.817Z,15.00
2022-10-19T09:38:47.019Z,15.00
2022-10-19T09:41:29.602Z,15.10
2022-10-19T09:44:57.442Z,15.20
2022-10-19T09:48:04.590Z,15.50
2022-10-19T09:50:45.591Z,15.70
2022-10-19T09:53:26.791Z,15.90
2022-10-19T09:56:54.147Z,15.90
2022-10-19T10:03:02.687Z,16.00
2022-10-19T10:05:37.596Z,15.90
2022-10-19T10:15:59.329Z,15.40
2022-10-19T10:18:38.679Z,15.20
2022-10-19T10:21:25.720Z,15.00
2022-10-19T10:24:02.991Z,14.80
2022-10-19T10:26:32.866Z,14.70
2022-10-19T10:29:21.661Z,14.70
2022-10-19T10:31:59.687Z,14.80
2022-10-19T10:34:51.806Z,15.10
2022-10-19T10:37:31.791Z,15.30
2022-10-19T10:40:03.724Z,15.60
2022-10-19T10:42:45.382Z,15.80
2022-10-19T10:45:47.512Z,15.90
2022-10-19T10:48:28.333Z,15.90
2022-10-19T10:51:01.458Z,15.80
2022-10-19T10:54:01.143Z,15.80
2022-10-19T10:56:35.605Z,15.60
2022-10-19T11:00:02.918Z,15.50
2022-10-19T11:02:49.136Z,15.40
2022-10-19T11:05:39.844Z,15.10
2022-10-19T11:08:19.843Z,14.90
2022-10-19T11:10:52.512Z,14.80
2022-10-19T11:13:28.337Z,14.60
2022-10-19T11:16:02.011Z,14.50
2022-10-19T11:18:33.482Z,14.30
2022-10-19T11:21:08.038Z,14.20
2022-10-19T11:23:49.024Z,14.10
2022-10-19T11:26:28.458Z,14.10
2022-10-19T11:29:08.097Z,14.10
2022-10-19T11:31:45.899Z,14.00
2022-10-19T11:34:30.582Z,14.00
2022-10-19T11:37:08.570Z,14.10
2022-10-19T11:39:45.879Z,14.10
2022-10-19T11:42:20.656Z,14.10
2022-10-19T11:45:24.375Z,14.20
2022-10-19T11:48:03.460Z,14.20
2022-10-19T11:51:20.788Z,14.20
2022-10-19T11:54:36.520Z,14.20
2022-10-19T11:58:42.542Z,14.20
2022-10-19T12:02:05.952Z,14.20
2022-10-19T12:05:35.020Z,14.10
2022-10-19T12:12:19.959Z,14.20
2022-10-19T12:14:52.793Z,14.30
2022-10-19T12:17:48.267Z,14.20
2022-10-19T12:20:26.967Z,14.20
2022-10-19T12:22:55.678Z,14.20
2022-10-19T12:25:26.477Z,14.10
2022-10-19T12:27:58.101Z,14.10
2022-10-19T12:30:51.088Z,14.00
2022-10-19T12:33:24.639Z,14.00
2022-10-19T12:36:14.421Z,13.90
2022-10-19T12:39:00.098Z,14.00
2022-10-19T12:41:33.003Z,14.00
2022-10-19T12:44:18.142Z,14.10
2022-10-19T12:46:57.555Z,14.10
2022-10-19T12:49:51.563Z,14.10
2022-10-19T12:52:45.316Z,14.10
2022-10-19T12:55:27.630Z,14.10
2022-10-19T12:58:08.346Z,14.10
2022-10-19T13:00:42.015Z,14.10
2022-10-19T13:03:38.722Z,14.20
2022-10-19T13:06:12.754Z,14.20
2022-10-19T13:09:17.036Z,14.30
2022-10-19T13:12:29.051Z,14.30
2022-10-19T13:14:59.005Z,14.30
2022-10-19T13:17:44.018Z,14.30
2022-10-19T13:20:56.123Z,14.30
2022-10-19T13:23:40.042Z,14.20
2022-10-19T13:26:25.174Z,14.20
2022-10-19T13:28:57.269Z,14.20
2022-10-19T13:31:28.029Z,14.20
2022-10-19T13:33:59.347Z,14.20
2022-10-19T13:36:52.495Z,14.20
2022-10-19T13:39:44.199Z,14.10
2022-10-19T13:42:34.536Z,14.10
2022-10-19T13:45:04.556Z,14.10
2022-10-19T13:47:39.283Z,14.00
2022-10-19T13:50:40.009Z,14.10
2022-10-19T13:53:27.859Z,14.10
2022-10-19T13:56:28.749Z,14.10
2022-10-19T13:59:31.431Z,14.00
2022-10-19T14:02:26.078Z,13.90
2022-10-19T14:05:16.853Z,13.90
2022-10-19T14:07:54.018Z,13.80
2022-10-19T14:10:28.307Z,13.70
2022-10-19T14:13:01.346Z,13.70
2022-10-19T14:15:31.058Z,13.60
2022-10-19T14:18:03.594Z,13.60
2022-10-19T14:20:35.637Z,13.60
2022-10-19T14:23:21.211Z,13.60
2022-10-19T14:25:59.714Z,13.60
2022-10-19T14:28:28.900Z,13.60
2022-10-19T14:31:00.243Z,13.60
2022-10-19T14:33:29.382Z,13.50
2022-10-19T14:35:57.241Z,13.40
2022-10-19T14:38:30.551Z,13.40
2022-10-19T14:40:59.743Z,13.40
2022-10-19T14:43:29.297Z,13.30
2022-10-19T14:46:21.340Z,13.30
2022-10-19T14:48:50.968Z,13.30
2022-10-19T14:51:30.612Z,13.20
2022-10-19T14:54:01.282Z,13.20
2022-10-19T14:56:37.013Z,13.20
2022-10-19T14:59:07.346Z,13.10
2022-10-19T15:01:36.222Z,13.10
2022-10-19T15:04:10.920Z,13.00
2022-10-19T15:06:49.493Z,13.00
2022-10-19T15:09:37.048Z,12.90
2022-10-19T15:12:18.972Z,12.90
2022-10-19T15:14:48.766Z,12.90
2022-10-19T15:17:24.814Z,12.80
2022-10-19T15:19:53.815Z,12.80
2022-10-19T15:22:23.747Z,12.70
2022-10-19T15:25:02.976Z,12.70
2022-10-19T15:27:34.491Z,12.70
2022-10-19T15:30:24.025Z,12.70
2022-10-19T15:32:55.639Z,12.60
2022-10-19T15:35:29.357Z,12.60
2022-10-19T15:38:02.909Z,12.50
2022-10-19T15:40:34.399Z,12.40
2022-10-19T15:43:35.852Z,12.30
2022-10-19T15:46:06.288Z,12.30
2022-10-19T15:48:50.079Z,12.20
2022-10-19T15:51:46.629Z,12.10
2022-10-19T15:54:17.264Z,12.00
2022-10-19T15:56:47.291Z,12.00
2022-10-19T15:59:19.083Z,11.90
2022-10-19T16:01:53.709Z,11.90
2022-10-19T16:04:22.992Z,11.80
2022-10-19T16:06:50.886Z,11.70
2022-10-19T16:09:21.220Z,11.60
2022-10-19T16:11:50.296Z,11.50
2022-10-19T16:14:19.496Z,11.50
2022-10-19T16:16:49.965Z,11.40
2022-10-19T16:19:17.806Z,11.30
2022-10-19T16:21:50.000Z,11.20
2022-10-19T16:24:18.331Z,11.20
2022-10-19T16:26:46.217Z,11.10
2022-10-19T16:29:14.171Z,11.00
2022-10-19T16:31:43.375Z,11.00
2022-10-19T16:34:11.220Z,11.00
2022-10-19T16:36:39.055Z,10.90
2022-10-19T16:39:06.880Z,10.90
2022-10-19T16:41:34.766Z,10.80
2022-10-19T16:44:02.587Z,10.80
2022-10-19T16:46:30.334Z,10.70
2022-10-19T16:48:59.468Z,10.70
2022-10-19T16:51:30.956Z,10.60
2022-10-19T16:53:59.272Z,10.50
2022-10-19T16:56:28.955Z,10.40
2022-10-19T16:58:58.032Z,10.40
2022-10-19T17:01:25.948Z,10.30
2022-10-19T17:03:55.164Z,10.30
2022-10-19T17:06:26.778Z,10.20
2022-10-19T17:11:44.204Z,10.20
2022-10-19T17:14:13.194Z,10.10
2022-10-19T17:16:41.379Z,10.10
2022-10-19T17:19:11.430Z,10.00
2022-10-19T17:21:42.218Z,10.00
2022-10-19T17:24:21.011Z,9.90
2022-10-19T17:26:50.503Z,9.90
2022-10-19T17:29:20.064Z,9.90
2022-10-19T17:31:48.784Z,9.80
2022-10-19T17:34:21.315Z,9.80
2022-10-19T17:36:52.757Z,9.80
2022-10-19T17:39:30.031Z,9.70
2022-10-19T17:42:01.469Z,9.70
2022-10-19T17:44:30.639Z,9.60
2022-10-19T17:46:58.966Z,9.60
2022-10-19T17:49:26.884Z,9.50
2022-10-19T17:51:56.002Z,9.50
2022-10-19T17:54:23.796Z,9.40
2022-10-19T17:56:51.777Z,9.40
2022-10-19T17:59:30.111Z,9.40
2022-10-19T18:02:13.624Z,9.30
2022-10-19T18:04:42.550Z,9.30
2022-10-19T18:07:16.287Z,9.30
2022-10-19T18:09:44.177Z,9.20
2022-10-19T18:12:17.923Z,9.20
2022-10-19T18:14:48.605Z,9.10
2022-10-19T18:17:27.000Z,9.10
2022-10-19T18:20:03.142Z,9.10
2022-10-19T18:22:58.014Z,9.10
2022-10-19T18:25:42.557Z,9.00
2022-10-19T18:28:14.378Z,9.00
2022-10-19T18:30:45.180Z,8.90
2022-10-19T18:33:13.731Z,8.90
2022-10-19T18:35:42.005Z,8.90
2022-10-19T18:38:11.191Z,8.90
2022-10-19T18:40:39.159Z,8.80
2022-10-19T18:43:07.916Z,8.80
2022-10-19T18:45:35.673Z,8.80
2022-10-19T18:48:03.662Z,8.70
2022-10-19T18:50:31.775Z,8.70
2022-10-19T18:53:02.883Z,8.70
2022-10-19T18:55:39.785Z,8.70
2022-10-19T18:58:07.579Z,8.60
2022-10-19T19:00:44.833Z,8.60
2022-10-19T19:03:25.196Z,8.60
2022-10-19T19:05:54.314Z,8.60
2022-10-19T19:12:36.158Z,8.60
2022-10-19T19:15:27.121Z,8.50
2022-10-19T19:17:55.646Z,8.50
2022-10-19T19:20:37.747Z,8.50
2022-10-19T19:23:05.770Z,8.50
2022-10-19T19:25:33.579Z,8.40
2022-10-19T19:28:06.012Z,8.40
2022-10-19T19:30:33.882Z,8.30
2022-10-19T19:33:08.000Z,8.30
2022-10-19T19:35:42.557Z,8.30
2022-10-19T19:38:10.975Z,8.30
2022-10-19T19:40:50.131Z,8.30
2022-10-19T19:43:25.312Z,8.30
2022-10-19T19:46:04.552Z,8.30
2022-10-19T19:48:51.388Z,8.30
2022-10-19T19:51:22.371Z,8.30
2022-10-19T19:53:57.367Z,8.30
2022-10-19T19:56:27.750Z,8.30
2022-10-19T19:59:38.014Z,8.30
2022-10-19T20:02:40.567Z,8.30
2022-10-19T20:05:20.688Z,8.30
2022-10-19T20:08:04.763Z,8.20
2022-10-19T20:10:36.024Z,8.20
2022-10-19T20:13:10.324Z,8.20
2022-10-19T20:15:55.450Z,8.20
2022-10-19T20:18:29.220Z,8.20
2022-10-19T20:21:14.861Z,8.10
2022-10-19T20:23:53.298Z,8.10
2022-10-19T20:26:23.775Z,8.10
2022-10-19T20:28:52.560Z,8.10
2022-10-19T20:31:22.440Z,8.20
2022-10-19T20:33:50.627Z,8.20
2022-10-19T20:36:25.119Z,8.20
2022-10-19T20:38:54.736Z,8.20
2022-10-19T20:41:27.764Z,8.10
2022-10-19T20:43:56.593Z,8.10
2022-10-19T20:46:27.881Z,8.10
2022-10-19T20:48:59.082Z,8.10
2022-10-19T20:51:30.994Z,8.10
2022-10-19T20:54:00.836Z,8.10
2022-10-19T20:56:31.028Z,8.00
2022-10-19T20:59:01.066Z,8.00
2022-10-19T21:01:32.831Z,7.90
2022-10-19T21:04:03.243Z,7.90
2022-10-19T21:06:32.971Z,7.90
2022-10-19T21:09:01.532Z,7.90
2022-10-19T21:11:31.601Z,7.90
2022-10-19T21:14:01.000Z,8.00
2022-10-19T21:16:33.577Z,7.90
2022-10-19T21:19:02.683Z,7.90
2022-10-19T21:21:33.091Z,7.80
2022-10-19T21:24:04.515Z,7.80
2022-10-19T21:26:33.890Z,7.80
2022-10-19T21:29:02.173Z,7.80
2022-10-19T21:31:31.436Z,7.80
2022-10-19T21:33:59.382Z,7.80
2022-10-19T21:36:27.115Z,7.80
2022-10-19T21:38:54.847Z,7.70
2022-10-19T21:41:26.213Z,7.70
2022-10-19T21:43:54.601Z,7.70
2022-10-19T21:46:23.898Z,7.70
2022-10-19T21:48:55.133Z,7.70
2022-10-19T21:51:33.538Z,7.70
2022-10-19T21:54:01.772Z,7.70
2022-10-19T21:56:30.158Z,7.70
2022-10-19T21:58:58.106Z,7.70
2022-10-19T22:01:30.892Z,7.70
2022-10-19T22:04:01.663Z,7.70
2022-10-19T22:06:31.968Z,7.60
2022-10-19T22:09:00.965Z,7.60
2022-10-19T22:11:28.990Z,7.60
2022-10-19T22:13:58.069Z,7.60
2022-10-19T22:16:26.970Z,7.60
2022-10-19T22:18:55.631Z,7.60
2022-10-19T22:21:26.826Z,7.60
2022-10-19T22:23:56.395Z,7.60
2022-10-19T22:26:25.843Z,7.60
2022-10-19T22:28:55.471Z,7.60
2022-10-19T22:31:23.848Z,7.60
2022-10-19T22:33:51.665Z,7.60
2022-10-19T22:36:19.893Z,7.50
2022-10-19T22:38:49.583Z,7.50
2022-10-19T22:41:17.395Z,7.50
2022-10-19T22:43:45.183Z,7.50
2022-10-19T22:46:13.095Z,7.40
2022-10-19T22:48:40.942Z,7.40
2022-10-19T22:51:08.721Z,7.30
2022-10-19T22:53:36.646Z,7.30
2022-10-19T22:56:06.651Z,7.30
2022-10-19T22:58:34.512Z,7.20
2022-10-19T23:01:04.150Z,7.20
2022-10-19T23:03:32.528Z,7.20
2022-10-19T23:06:00.572Z,7.20
2022-10-19T23:08:32.221Z,7.20
2022-10-19T23:11:00.294Z,7.20
2022-10-19T23:13:29.698Z,7.20
2022-10-19T23:15:57.709Z,7.20
2022-10-19T23:18:25.745Z,7.20
2022-10-19T23:20:55.144Z,7.20
2022-10-19T23:23:23.221Z,7.20
2022-10-19T23:26:01.436Z,7.20
2022-10-19T23:28:31.551Z,7.10
2022-10-19T23:31:05.135Z,7.10
2022-10-19T23:33:33.498Z,7.10
2022-10-19T23:36:06.109Z,7.10
2022-10-19T23:38:34.019Z,7.10
2022-10-19T23:41:01.920Z,7.10
2022-10-19T23:43:31.149Z,7.10
2022-10-19T23:45:58.996Z,7.10
2022-10-19T23:48:27.373Z,7.10
2022-10-19T23:50:59.596Z,7.10
2022-10-19T23:53:28.509Z,7.00
2022-10-19T23:56:00.461Z,7.00
2022-10-19T23:58:28.619Z,7.10
